Time;durP1;ratioP1;P1;durP2;ratioP2;P2;SDS_P1;SDS_P2;PMS_P1;PMS_P2;Temp;Humidity;BMP_temperature;BMP_pressure;BME280_temperature;BME280_humidity;BME280_pressure;Samples;Min_cycle;Max_cycle;Signal;HPM_P1;HPM_P2
2021/10/22 00:11:43;;;;;;;0.10;0.10;;;;;;;;;;4995099;28;20433;-89
2021/10/22 00:14:10;;;;;;;0.10;0.10;;;;;;;;;;4961716;28;20104;-89
2021/10/22 00:16:36;;;;;;;0.10;0.10;;;;;;;;;;4961377;28;20046;-88
2021/10/22 00:19:02;;;;;;;0.10;0.10;;;;;;;;;;4961310;28;20050;-89
2021/10/22 00:21:28;;;;;;;0.10;0.10;;;;;;;;;;4945458;28;20046;-89
2021/10/22 00:23:54;;;;;;;0.10;0.10;;;;;;;;;;4961274;28;20086;-90
2021/10/22 00:26:20;;;;;;;0.10;0.10;;;;;;;;;;4945018;28;20551;-89
2021/10/22 00:28:46;;;;;;;0.10;0.10;;;;;;;;;;4961386;28;20046;-89
2021/10/22 00:31:13;;;;;;;0.10;0.10;;;;;;;;;;4961331;28;20477;-89
2021/10/22 00:33:39;;;;;;;0.10;0.10;;;;;;;;;;4961250;28;20049;-89
2021/10/22 00:36:06;;;;;;;0.10;0.10;;;;;;;;;;4945220;28;20073;-89
2021/10/22 00:38:32;;;;;;;0.10;0.10;;;;;;;;;;4945306;28;20046;-89
2021/10/22 00:40:58;;;;;;;0.10;0.10;;;;;;;;;;4944939;28;20054;-89
2021/10/22 00:43:28;;;;;;;0.10;0.10;;;;;;;;;;4961180;28;20081;-90
2021/10/22 00:45:54;;;;;;;0.10;0.10;;;;;;;;;;4961305;28;20433;-90
2021/10/22 00:48:20;;;;;;;0.10;0.10;;;;;;;;;;4960806;28;20048;-90
2021/10/22 00:50:47;;;;;;;0.10;0.10;;;;;;;;;;4945016;28;20074;-89
2021/10/22 00:53:13;;;;;;;0.10;0.10;;;;;;;;;;4944690;28;20367;-91
2021/10/22 00:55:40;;;;;;;0.10;0.10;;;;;;;;;;4960869;28;20042;-91
2021/10/22 00:58:06;;;;;;;0.10;0.10;;;;;;;;;;4960804;28;20052;-90
2021/10/22 01:00:32;;;;;;;0.10;0.10;;;;;;;;;;4945107;28;20078;-90
2021/10/22 01:02:58;;;;;;;0.10;0.10;;;;;;;;;;4945045;28;20445;-91
2021/10/22 01:05:25;;;;;;;0.10;0.10;;;;;;;;;;4944850;28;20046;-90
2021/10/22 01:07:51;;;;;;;0.10;0.10;;;;;;;;;;4960752;28;20034;-90
2021/10/22 01:10:18;;;;;;;0.10;0.10;;;;;;;;;;4945446;28;20137;-91
2021/10/22 01:12:44;;;;;;;0.10;0.10;;;;;;;;;;4944803;28;20070;-91
2021/10/22 01:15:10;;;;;;;0.10;0.10;;;;;;;;;;4944743;28;20469;-91
2021/10/22 01:17:43;;;;;;;0.10;0.10;;;;;;;;;;4945125;28;20053;-90
2021/10/22 01:20:14;;;;;;;0.10;0.10;;;;;;;;;;4961010;28;20050;-90
2021/10/22 01:22:40;;;;;;;0.10;0.10;;;;;;;;;;4944385;28;20129;-90
2021/10/22 01:25:10;;;;;;;0.10;0.10;;;;;;;;;;4944203;28;20069;-89
2021/10/22 01:27:36;;;;;;;0.10;0.10;;;;;;;;;;4944214;28;20039;-89
2021/10/22 01:30:03;;;;;;;0.10;0.10;;;;;;;;;;4960077;28;20038;-89
2021/10/22 01:32:30;;;;;;;0.10;0.10;;;;;;;;;;4944199;28;20552;-89
2021/10/22 01:34:56;;;;;;;0.10;0.10;;;;;;;;;;4943967;28;20046;-89
2021/10/22 01:37:22;;;;;;;0.10;0.10;;;;;;;;;;4959825;28;20057;-89
2021/10/22 01:39:48;;;;;;;0.10;0.10;;;;;;;;;;4944091;28;20052;-90
2021/10/22 01:42:14;;;;;;;0.10;0.10;;;;;;;;;;4943821;28;20517;-90
2021/10/22 01:44:40;;;;;;;0.10;0.10;;;;;;;;;;4959857;28;20201;-89
2021/10/22 01:47:06;;;;;;;0.10;0.10;;;;;;;;;;4960069;28;20038;-90
2021/10/22 01:49:32;;;;;;;0.10;0.10;;;;;;;;;;4943881;28;20046;-90
2021/10/22 01:51:58;;;;;;;0.10;0.10;;;;;;;;;;4959934;28;20096;-89
2021/10/22 01:54:24;;;;;;;0.10;0.10;;;;;;;;;;4960123;28;20049;-90
2021/10/22 01:56:52;;;;;;;0.10;0.10;;;;;;;;;;4948768;28;20042;-96
2021/10/22 01:59:18;;;;;;;0.10;0.10;;;;;;;;;;4945220;28;20042;-89
2021/10/22 02:01:44;;;;;;;0.10;0.10;;;;;;;;;;4959503;28;20077;-89
2021/10/22 02:04:10;;;;;;;0.10;0.10;;;;;;;;;;4943499;28;20074;-90
2021/10/22 02:06:36;;;;;;;0.10;0.10;;;;;;;;;;4958663;28;20042;-90
2021/10/22 02:09:02;;;;;;;0.10;0.10;;;;;;;;;;4975226;28;20045;-90
2021/10/22 02:11:28;;;;;;;0.10;0.10;;;;;;;;;;4943398;28;20121;-90
2021/10/22 02:13:54;;;;;;;0.10;0.10;;;;;;;;;;4959598;28;20137;-90
2021/10/22 02:16:20;;;;;;;0.10;0.10;;;;;;;;;;4943071;28;20079;-89
2021/10/22 02:18:46;;;;;;;0.10;0.10;;;;;;;;;;4943478;28;20053;-90
2021/10/22 02:21:12;;;;;;;0.10;0.10;;;;;;;;;;4943408;28;20686;-89
2021/10/22 02:23:38;;;;;;;0.10;0.10;;;;;;;;;;4959172;28;20133;-90
2021/10/22 02:26:04;;;;;;;0.10;0.10;;;;;;;;;;4943055;28;20427;-89
2021/10/22 02:28:30;;;;;;;0.10;0.10;;;;;;;;;;4959462;28;20191;-90
2021/10/22 02:30:56;;;;;;;0.10;0.10;;;;;;;;;;4975257;28;20218;-88
2021/10/22 02:33:22;;;;;;;0.00;0.00;;;;;;;;;;4943117;28;20190;-89
2021/10/22 02:35:48;;;;;;;0.10;0.10;;;;;;;;;;4958951;28;20046;-89
2021/10/22 02:38:14;;;;;;;0.10;0.10;;;;;;;;;;4959184;28;20500;-89
2021/10/22 02:40:40;;;;;;;0.10;0.10;;;;;;;;;;4958886;28;20084;-90
2021/10/22 02:43:06;;;;;;;0.10;0.10;;;;;;;;;;4959310;28;20042;-89
2021/10/22 02:45:32;;;;;;;1.00;1.00;;;;;;;;;;4959047;28;20038;-90
2021/10/22 02:47:58;;;;;;;0.10;0.10;;;;;;;;;;4942927;28;20042;-90
2021/10/22 02:50:24;;;;;;;0.10;0.10;;;;;;;;;;4958846;28;20077;-89
2021/10/22 02:52:50;;;;;;;0.10;0.10;;;;;;;;;;4943033;28;20057;-90
2021/10/22 02:55:16;;;;;;;0.10;0.10;;;;;;;;;;4959007;28;20168;-89
2021/10/22 02:57:43;;;;;;;0.10;0.10;;;;;;;;;;4943177;28;20128;-89
2021/10/22 03:00:11;;;;;;;0.13;0.13;;;;;;;;;;4959000;28;20567;-89
2021/10/22 03:02:37;;;;;;;0.10;0.10;;;;;;;;;;4959393;28;20164;-89
2021/10/22 03:05:03;;;;;;;0.10;0.10;;;;;;;;;;4958694;28;20125;-89
2021/10/22 03:07:29;;;;;;;0.10;0.10;;;;;;;;;;4942665;28;20085;-89
2021/10/22 03:09:55;;;;;;;0.10;0.10;;;;;;;;;;4958853;28;20090;-89
2021/10/22 03:12:21;;;;;;;0.10;0.10;;;;;;;;;;4958558;28;20080;-89
2021/10/22 03:14:47;;;;;;;0.10;0.10;;;;;;;;;;4974532;28;20398;-89
2021/10/22 03:17:13;;;;;;;0.10;0.10;;;;;;;;;;4960412;28;20370;-89
2021/10/22 03:19:39;;;;;;;0.10;0.10;;;;;;;;;;4946448;28;20034;-90
2021/10/22 03:22:05;;;;;;;0.10;0.10;;;;;;;;;;4962682;28;20038;-90
2021/10/22 03:24:31;;;;;;;0.10;0.10;;;;;;;;;;4946184;28;20058;-90
2021/10/22 03:26:57;;;;;;;0.20;0.20;;;;;;;;;;4962381;28;20059;-91
2021/10/22 03:29:23;;;;;;;0.10;0.10;;;;;;;;;;4962655;28;20045;-90
2021/10/22 03:31:49;;;;;;;0.10;0.10;;;;;;;;;;4962651;28;20510;-91
2021/10/22 03:34:15;;;;;;;0.10;0.10;;;;;;;;;;4962800;28;20088;-91
2021/10/22 03:36:42;;;;;;;0.10;0.10;;;;;;;;;;4962237;28;20049;-90
2021/10/22 03:39:08;;;;;;;0.10;0.10;;;;;;;;;;4962419;28;20058;-90
2021/10/22 03:41:34;;;;;;;0.10;0.10;;;;;;;;;;4962133;28;20038;-90
2021/10/22 03:44:00;;;;;;;0.10;0.10;;;;;;;;;;4962038;28;20042;-90
2021/10/22 03:46:26;;;;;;;0.10;0.10;;;;;;;;;;4945812;28;20042;-89
2021/10/22 03:48:52;;;;;;;0.10;0.10;;;;;;;;;;4978045;28;20042;-90
2021/10/22 03:51:18;;;;;;;0.10;0.10;;;;;;;;;;4945886;28;20038;-89
2021/10/22 03:53:44;;;;;;;0.10;0.10;;;;;;;;;;4961972;28;20584;-89
2021/10/22 03:56:10;;;;;;;0.10;0.10;;;;;;;;;;4945965;28;20125;-90
2021/10/22 03:58:36;;;;;;;0.10;0.10;;;;;;;;;;4962015;28;20046;-90
2021/10/22 04:01:02;;;;;;;0.10;0.10;;;;;;;;;;4977935;28;20042;-90
2021/10/22 04:03:28;;;;;;;0.10;0.10;;;;;;;;;;4961964;28;20453;-90
2021/10/22 04:05:54;;;;;;;0.10;0.10;;;;;;;;;;4945663;28;20413;-90
2021/10/22 04:08:21;;;;;;;0.10;0.10;;;;;;;;;;4945779;28;20121;-90
2021/10/22 04:10:47;;;;;;;0.10;0.10;;;;;;;;;;4977348;28;20431;-89
2021/10/22 04:13:13;;;;;;;0.10;0.10;;;;;;;;;;4961619;28;20042;-90
2021/10/22 04:15:40;;;;;;;0.10;0.10;;;;;;;;;;4961423;28;20081;-90
2021/10/22 04:18:06;;;;;;;0.10;0.10;;;;;;;;;;4961504;28;20046;-90
2021/10/22 04:20:32;;;;;;;0.00;0.00;;;;;;;;;;4945363;28;20490;-90
2021/10/22 04:22:58;;;;;;;0.10;0.10;;;;;;;;;;4960930;28;20536;-89
2021/10/22 04:25:26;;;;;;;0.10;0.10;;;;;;;;;;4977242;28;20133;-89
2021/10/22 04:27:52;;;;;;;0.10;0.10;;;;;;;;;;4961129;28;20173;-89
2021/10/22 04:30:18;;;;;;;0.10;0.10;;;;;;;;;;4944937;28;20085;-89
2021/10/22 04:32:44;;;;;;;0.10;0.10;;;;;;;;;;4961621;28;20053;-89
2021/10/22 04:35:10;;;;;;;0.10;0.10;;;;;;;;;;4945198;28;20052;-90
2021/10/22 04:38:00;;;;;;;0.10;0.10;;;;;;;;;;4960825;28;20405;-89
2021/10/22 04:40:30;;;;;;;0.10;0.10;;;;;;;;;;4948263;28;20052;-90
2021/10/22 04:42:57;;;;;;;0.10;0.10;;;;;;;;;;4961399;28;20072;-90
2021/10/22 04:45:23;;;;;;;0.10;0.10;;;;;;;;;;4960712;28;20043;-90
2021/10/22 04:47:49;;;;;;;0.10;0.10;;;;;;;;;;4960790;28;20042;-89
2021/10/22 04:50:15;;;;;;;0.10;0.10;;;;;;;;;;4977113;28;20073;-90
2021/10/22 04:52:41;;;;;;;0.10;0.10;;;;;;;;;;4945217;28;20077;-90
2021/10/22 04:55:07;;;;;;;0.10;0.10;;;;;;;;;;4944676;28;20065;-89
2021/10/22 04:57:34;;;;;;;0.10;0.10;;;;;;;;;;4960696;28;20136;-89
2021/10/22 05:00:00;;;;;;;0.10;0.10;;;;;;;;;;4944606;28;20105;-89
2021/10/22 05:02:26;;;;;;;0.10;0.10;;;;;;;;;;4960491;28;20105;-89
2021/10/22 05:04:52;;;;;;;0.10;0.10;;;;;;;;;;4944542;28;20042;-90
2021/10/22 05:07:17;;;;;;;0.10;0.10;;;;;;;;;;4944583;28;20175;-89
2021/10/22 05:09:43;;;;;;;0.10;0.10;;;;;;;;;;4960749;28;20046;-89
2021/10/22 05:12:09;;;;;;;0.10;0.10;;;;;;;;;;4944399;28;20437;-89
2021/10/22 05:14:35;;;;;;;0.10;0.10;;;;;;;;;;4944254;28;20088;-89
2021/10/22 05:17:02;;;;;;;0.10;0.10;;;;;;;;;;4960643;28;20442;-90
2021/10/22 05:19:28;;;;;;;0.10;0.10;;;;;;;;;;4944423;28;20053;-90
2021/10/22 05:21:54;;;;;;;0.10;0.10;;;;;;;;;;4960249;28;20042;-89
2021/10/22 05:24:21;;;;;;;0.10;0.10;;;;;;;;;;4944013;28;20061;-89
2021/10/22 05:26:47;;;;;;;0.10;0.10;;;;;;;;;;4944300;28;20490;-90
2021/10/22 05:29:13;;;;;;;0.10;0.10;;;;;;;;;;4944543;28;20354;-90
2021/10/22 05:31:38;;;;;;;0.10;0.10;;;;;;;;;;4960177;28;20053;-90
2021/10/22 05:34:04;;;;;;;0.10;0.10;;;;;;;;;;4960337;28;20493;-90
2021/10/22 05:36:30;;;;;;;0.10;0.10;;;;;;;;;;4960173;28;20508;-90
2021/10/22 05:38:57;;;;;;;0.10;0.10;;;;;;;;;;4944244;28;20146;-90
2021/10/22 05:41:23;;;;;;;0.10;0.10;;;;;;;;;;4975813;28;20034;-90
2021/10/22 05:43:50;;;;;;;0.10;0.10;;;;;;;;;;4960172;28;20046;-91
2021/10/22 05:46:18;;;;;;;0.10;0.10;;;;;;;;;;4944292;28;20093;-91
2021/10/22 05:48:44;;;;;;;0.10;0.10;;;;;;;;;;4944643;28;20052;-90
2021/10/22 05:51:10;;;;;;;0.10;0.10;;;;;;;;;;4944108;28;20493;-91
2021/10/22 05:53:36;;;;;;;0.10;0.10;;;;;;;;;;4960483;28;20089;-91
2021/10/22 05:56:02;;;;;;;0.10;0.10;;;;;;;;;;4960124;28;20038;-91
2021/10/22 05:58:28;;;;;;;0.10;0.10;;;;;;;;;;4975665;28;20441;-91
2021/10/22 06:00:54;;;;;;;0.10;0.10;;;;;;;;;;4959889;28;20077;-91
2021/10/22 06:03:20;;;;;;;0.10;0.10;;;;;;;;;;4944122;28;20042;-90
2021/10/22 06:05:51;;;;;;;0.10;0.10;;;;;;;;;;4943568;28;20462;-90
2021/10/22 06:08:18;;;;;;;0.10;0.10;;;;;;;;;;4944325;28;20045;-90
2021/10/22 06:10:44;;;;;;;0.10;0.10;;;;;;;;;;4959615;28;20046;-89
2021/10/22 06:13:11;;;;;;;0.10;0.10;;;;;;;;;;4959388;28;20042;-90
2021/10/22 06:15:36;;;;;;;0.17;0.17;;;;;;;;;;4959331;28;20054;-90
2021/10/22 06:18:04;;;;;;;0.10;0.10;;;;;;;;;;4959705;28;20102;-89
2021/10/22 06:20:41;;;;;;;0.32;0.32;;;;;;;;;;4943816;28;20046;-91
2021/10/22 06:25:38;;;;;;;0.20;0.20;;;;;;;;;;4959604;28;20057;-88
2021/10/22 06:28:05;;;;;;;0.35;0.35;;;;;;;;;;4959464;28;20144;-88
2021/10/22 06:30:31;;;;;;;3.72;0.25;;;;;;;;;;4959255;28;20109;-89
2021/10/22 06:32:57;;;;;;;0.10;0.10;;;;;;;;;;4959170;28;20042;-90
2021/10/22 06:35:23;;;;;;;0.10;0.10;;;;;;;;;;4943633;28;20492;-89
2021/10/22 06:37:49;;;;;;;0.10;0.10;;;;;;;;;;4943698;28;20171;-89
2021/10/22 06:40:15;;;;;;;0.10;0.10;;;;;;;;;;4975407;28;20042;-89
2021/10/22 06:42:41;;;;;;;0.10;0.10;;;;;;;;;;4959629;28;20042;-91
2021/10/22 06:45:08;;;;;;;0.10;0.10;;;;;;;;;;4960224;28;20039;-92
2021/10/22 06:47:34;;;;;;;0.10;0.10;;;;;;;;;;4944770;28;20048;-95
2021/10/22 06:50:00;;;;;;;0.10;0.10;;;;;;;;;;4944502;28;20038;-91
2021/10/22 06:52:26;;;;;;;0.10;0.10;;;;;;;;;;4945526;28;20363;-90
2021/10/22 06:54:53;;;;;;;0.10;0.10;;;;;;;;;;4963473;28;20050;-90
2021/10/22 06:57:19;;;;;;;0.10;0.10;;;;;;;;;;4963681;28;20046;-91
2021/10/22 06:59:45;;;;;;;0.10;0.10;;;;;;;;;;4947802;28;20030;-89
2021/10/22 07:02:12;;;;;;;0.10;0.10;;;;;;;;;;4963842;28;20039;-92
2021/10/22 07:04:46;;;;;;;0.10;0.10;;;;;;;;;;4963220;28;20053;-87
2021/10/22 07:07:15;;;;;;;0.10;0.10;;;;;;;;;;4947928;28;20038;-90
2021/10/22 07:09:42;;;;;;;0.10;0.10;;;;;;;;;;4947316;28;20046;-87
2021/10/22 07:12:08;;;;;;;0.10;0.10;;;;;;;;;;4963017;28;20117;-90
2021/10/22 07:14:36;;;;;;;0.10;0.10;;;;;;;;;;4962764;28;20528;-92
2021/10/22 07:17:04;;;;;;;0.10;0.10;;;;;;;;;;4947333;28;20552;-92
2021/10/22 07:19:30;;;;;;;0.10;0.10;;;;;;;;;;4947686;28;20077;-92
2021/10/22 07:22:01;;;;;;;0.90;0.90;;;;;;;;;;4949452;28;20054;-91
2021/10/22 07:24:27;;;;;;;0.10;0.10;;;;;;;;;;4947678;28;20058;-90
2021/10/22 07:26:53;;;;;;;0.10;0.10;;;;;;;;;;4947327;28;20096;-92
2021/10/22 07:29:19;;;;;;;0.10;0.10;;;;;;;;;;4947115;28;20050;-92
2021/10/22 07:31:45;;;;;;;0.10;0.10;;;;;;;;;;4947612;28;20075;-93
2021/10/22 07:34:14;;;;;;;0.10;0.10;;;;;;;;;;4947600;28;20350;-93
2021/10/22 07:36:40;;;;;;;0.10;0.10;;;;;;;;;;4963397;28;20039;-93
2021/10/22 07:39:06;;;;;;;0.10;0.10;;;;;;;;;;4946848;28;20347;-91
2021/10/22 07:41:33;;;;;;;0.10;0.10;;;;;;;;;;4946717;28;20042;-89
2021/10/22 07:43:59;;;;;;;6.40;0.47;;;;;;;;;;4962306;28;20099;-91
2021/10/22 07:46:25;;;;;;;0.10;0.10;;;;;;;;;;4962195;28;20125;-90
2021/10/22 07:48:51;;;;;;;0.60;0.60;;;;;;;;;;4962069;28;20123;-90
2021/10/22 07:51:17;;;;;;;0.20;0.20;;;;;;;;;;4962047;28;20045;-91
2021/10/22 07:53:43;;;;;;;2.72;0.20;;;;;;;;;;4962606;28;20026;-91
2021/10/22 07:56:09;;;;;;;0.10;0.10;;;;;;;;;;4962576;28;20391;-91
2021/10/22 07:58:35;;;;;;;0.30;0.22;;;;;;;;;;4962895;28;20057;-92
2021/10/22 08:01:02;;;;;;;0.10;0.10;;;;;;;;;;4946682;28;20042;-90
2021/10/22 08:03:29;;;;;;;0.10;0.10;;;;;;;;;;4962176;28;20082;-91
2021/10/22 08:05:55;;;;;;;0.00;0.00;;;;;;;;;;4946375;28;20097;-90
2021/10/22 08:08:21;;;;;;;0.10;0.10;;;;;;;;;;4961573;28;20157;-91
2021/10/22 08:10:47;;;;;;;0.13;0.13;;;;;;;;;;4978412;28;20042;-91
2021/10/22 08:13:13;;;;;;;0.10;0.10;;;;;;;;;;4955986;28;20033;-91
2021/10/22 08:15:40;;;;;;;0.10;0.10;;;;;;;;;;4971351;28;20063;-91
2021/10/22 08:18:07;;;;;;;0.10;0.10;;;;;;;;;;4957635;28;20095;-90
2021/10/22 08:20:34;;;;;;;0.10;0.10;;;;;;;;;;4998842;28;20058;-91
2021/10/22 08:23:00;;;;;;;0.10;0.10;;;;;;;;;;4965514;28;20043;-89
2021/10/22 08:25:26;;;;;;;0.10;0.10;;;;;;;;;;4966265;28;20090;-89
2021/10/22 08:27:52;;;;;;;0.10;0.10;;;;;;;;;;4966142;28;20143;-89
2021/10/22 08:30:21;;;;;;;0.10;0.10;;;;;;;;;;4977886;28;20049;-90
2021/10/22 08:32:50;;;;;;;0.10;0.10;;;;;;;;;;4974540;28;20580;-91
2021/10/22 08:35:16;;;;;;;0.10;0.10;;;;;;;;;;4942482;28;20050;-90
2021/10/22 08:37:42;;;;;;;0.10;0.10;;;;;;;;;;4974365;28;20039;-90
2021/10/22 08:40:08;;;;;;;0.10;0.10;;;;;;;;;;4942022;28;20086;-91
2021/10/22 08:42:34;;;;;;;0.10;0.10;;;;;;;;;;4942179;28;20042;-90
2021/10/22 08:45:01;;;;;;;0.10;0.10;;;;;;;;;;4942244;28;20121;-92
2021/10/22 08:47:27;;;;;;;0.10;0.10;;;;;;;;;;4943347;28;20126;-95
2021/10/22 08:49:54;;;;;;;0.10;0.10;;;;;;;;;;4974059;28;20051;-90
2021/10/22 08:52:21;;;;;;;0.35;0.35;;;;;;;;;;4942158;28;20049;-91
2021/10/22 08:54:47;;;;;;;0.10;0.10;;;;;;;;;;4942410;28;20042;-91
2021/10/22 08:57:16;;;;;;;0.10;0.10;;;;;;;;;;4949699;28;20038;-95
2021/10/22 08:59:42;;;;;;;0.10;0.10;;;;;;;;;;4965005;28;20114;-92
2021/10/22 09:02:21;;;;;;;0.10;0.10;;;;;;;;;;4964810;28;20175;-93
2021/10/22 09:04:48;;;;;;;0.10;0.10;;;;;;;;;;4980823;28;20496;-93
2021/10/22 09:07:15;;;;;;;0.10;0.10;;;;;;;;;;4958648;28;20046;-94
2021/10/22 09:09:42;;;;;;;0.65;0.30;;;;;;;;;;4977784;28;20038;-93
2021/10/22 09:12:08;;;;;;;0.10;0.10;;;;;;;;;;4977999;28;20390;-93
2021/10/22 09:14:35;;;;;;;0.10;0.10;;;;;;;;;;4976239;28;20042;-91
2021/10/22 09:17:01;;;;;;;0.20;0.20;;;;;;;;;;4960623;28;20057;-92
2021/10/22 09:19:35;;;;;;;0.10;0.10;;;;;;;;;;4976923;28;20053;-90
2021/10/22 09:22:42;;;;;;;0.10;0.10;;;;;;;;;;4980344;28;20042;-90
2021/10/22 09:25:09;;;;;;;0.32;0.32;;;;;;;;;;4937814;29;20047;-90
2021/10/22 09:27:43;;;;;;;0.10;0.10;;;;;;;;;;4922414;29;20554;-90
2021/10/22 09:30:29;;;;;;;0.10;0.10;;;;;;;;;;4922207;29;20047;-91
2021/10/22 09:32:58;;;;;;;0.10;0.10;;;;;;;;;;4953827;29;20086;-91
2021/10/22 09:35:44;;;;;;;0.20;0.20;;;;;;;;;;4922332;29;20051;-92
2021/10/22 09:38:16;;;;;;;0.10;0.10;;;;;;;;;;4922269;29;20134;-91
2021/10/22 09:40:42;;;;;;;0.10;0.10;;;;;;;;;;4938234;29;20490;-93
2021/10/22 09:43:12;;;;;;;0.10;0.10;;;;;;;;;;4913772;28;20057;-93
2021/10/22 09:45:38;;;;;;;0.10;0.10;;;;;;;;;;4960930;28;20035;-92
2021/10/22 09:48:26;;;;;;;0.30;0.30;;;;;;;;;;4945113;28;20450;-93
2021/10/22 09:50:53;;;;;;;0.10;0.10;;;;;;;;;;4960651;28;20049;-90
2021/10/22 09:53:23;;;;;;;0.10;0.10;;;;;;;;;;4960113;28;20046;-91
2021/10/22 09:55:59;;;;;;;0.47;0.47;;;;;;;;;;4960145;28;20057;-92
2021/10/22 09:58:26;;;;;;;0.10;0.10;;;;;;;;;;4944250;28;20045;-92
2021/10/22 10:01:04;;;;;;;0.32;0.32;;;;;;;;;;4976271;28;20049;-91
2021/10/22 10:03:30;;;;;;;0.10;0.10;;;;;;;;;;4944490;28;20049;-92
2021/10/22 10:05:56;;;;;;;0.10;0.10;;;;;;;;;;4960450;28;20034;-93
2021/10/22 10:08:24;;;;;;;0.52;0.25;;;;;;;;;;4960640;28;20092;-93
2021/10/22 10:10:50;;;;;;;0.10;0.10;;;;;;;;;;4944630;28;20040;-92
2021/10/22 10:13:16;;;;;;;0.10;0.10;;;;;;;;;;4944342;28;20034;-93
2021/10/22 10:15:42;;;;;;;0.10;0.10;;;;;;;;;;4944586;28;20161;-93
2021/10/22 10:18:14;;;;;;;0.10;0.10;;;;;;;;;;4944217;28;20085;-91
2021/10/22 10:20:40;;;;;;;0.10;0.10;;;;;;;;;;4944729;28;20042;-94
2021/10/22 10:23:06;;;;;;;0.10;0.10;;;;;;;;;;4947250;28;20046;-92
2021/10/22 10:25:32;;;;;;;0.10;0.10;;;;;;;;;;4979168;28;20050;-93
2021/10/22 10:27:58;;;;;;;0.10;0.10;;;;;;;;;;4978762;28;20042;-90
2021/10/22 10:30:28;;;;;;;0.10;0.10;;;;;;;;;;4963085;28;20124;-91
2021/10/22 10:32:54;;;;;;;0.10;0.10;;;;;;;;;;4978789;28;20116;-90
2021/10/22 10:35:20;;;;;;;0.30;0.30;;;;;;;;;;4962902;28;20078;-91
2021/10/22 10:37:50;;;;;;;0.10;0.10;;;;;;;;;;4963204;28;20073;-91
2021/10/22 10:40:16;;;;;;;0.10;0.10;;;;;;;;;;4979465;28;20128;-91
2021/10/22 10:42:46;;;;;;;0.10;0.10;;;;;;;;;;4978890;28;20527;-91
2021/10/22 10:45:19;;;;;;;0.10;0.10;;;;;;;;;;4963025;28;20424;-91
2021/10/22 10:47:46;;;;;;;0.10;0.10;;;;;;;;;;4979606;28;20038;-91
2021/10/22 10:50:12;;;;;;;0.10;0.10;;;;;;;;;;4962507;28;20053;-91
2021/10/22 10:52:39;;;;;;;0.10;0.10;;;;;;;;;;4979287;28;20085;-91
2021/10/22 10:55:14;;;;;;;0.10;0.10;;;;;;;;;;4994932;28;20401;-90
2021/10/22 10:57:47;;;;;;;0.10;0.10;;;;;;;;;;4978520;28;20034;-93
2021/10/22 11:00:15;;;;;;;0.10;0.10;;;;;;;;;;4978762;28;20518;-92
2021/10/22 11:03:00;;;;;;;0.10;0.10;;;;;;;;;;4978858;28;20080;-91
2021/10/22 11:08:31;;;;;;;0.10;0.10;;;;;;;;;;4995242;28;20041;-93
2021/10/22 11:11:16;;;;;;;0.10;0.10;;;;;;;;;;4978841;28;20046;-94
2021/10/22 11:13:45;;;;;;;0.10;0.10;;;;;;;;;;4979322;28;20042;-93
2021/10/22 11:16:11;;;;;;;0.77;0.77;;;;;;;;;;4978883;28;20120;-95
2021/10/22 11:18:38;;;;;;;0.10;0.10;;;;;;;;;;4979198;28;20408;-94
2021/10/22 11:21:04;;;;;;;0.10;0.10;;;;;;;;;;4963273;28;20108;-94
2021/10/22 11:23:30;;;;;;;0.10;0.10;;;;;;;;;;4962597;28;20062;-93
2021/10/22 11:25:59;;;;;;;0.10;0.10;;;;;;;;;;4979302;28;20149;-93
2021/10/22 11:28:31;;;;;;;0.10;0.10;;;;;;;;;;4962900;28;20052;-95
2021/10/22 11:30:57;;;;;;;0.10;0.10;;;;;;;;;;4979006;28;20069;-94
2021/10/22 11:33:26;;;;;;;0.10;0.10;;;;;;;;;;4963169;28;20038;-93
2021/10/22 11:35:52;;;;;;;0.10;0.10;;;;;;;;;;4963388;28;20042;-94
2021/10/22 11:38:25;;;;;;;0.10;0.10;;;;;;;;;;4980883;28;20076;-94
2021/10/22 11:40:51;;;;;;;0.10;0.10;;;;;;;;;;4983866;28;20037;-96
2021/10/22 11:43:17;;;;;;;0.10;0.10;;;;;;;;;;4999747;28;20397;-91
2021/10/22 11:45:43;;;;;;;0.10;0.10;;;;;;;;;;4966784;28;20053;-93
2021/10/22 11:48:13;;;;;;;0.10;0.10;;;;;;;;;;4969243;28;20514;-92
2021/10/22 11:50:39;;;;;;;0.10;0.10;;;;;;;;;;4966927;28;20434;-93
2021/10/22 11:53:22;;;;;;;0.10;0.10;;;;;;;;;;4969599;28;20068;-95
2021/10/22 11:55:57;;;;;;;0.10;0.10;;;;;;;;;;4984656;28;20085;-93
2021/10/22 11:58:24;;;;;;;0.20;0.10;;;;;;;;;;4966768;28;20442;-94
2021/10/22 12:00:57;;;;;;;0.10;0.10;;;;;;;;;;4966422;28;20042;-94
2021/10/22 12:03:26;;;;;;;0.10;0.10;;;;;;;;;;4982455;28;20034;-94
2021/10/22 12:05:54;;;;;;;0.10;0.10;;;;;;;;;;4998456;28;20081;-94
2021/10/22 12:08:20;;;;;;;0.10;0.10;;;;;;;;;;4954249;28;20035;-91
2021/10/22 12:10:58;;;;;;;0.20;0.20;;;;;;;;;;4981104;28;20057;-94
2021/10/22 12:13:28;;;;;;;0.10;0.10;;;;;;;;;;4966720;28;20060;-93
2021/10/22 12:15:54;;;;;;;1.50;1.40;;;;;;;;;;4981757;28;20565;-93
2021/10/22 12:18:20;;;;;;;0.10;0.10;;;;;;;;;;4966036;28;20077;-93
2021/10/22 12:20:46;;;;;;;0.10;0.10;;;;;;;;;;4998728;28;20042;-94
2021/10/22 12:23:13;;;;;;;0.10;0.10;;;;;;;;;;4965441;28;20599;-90
2021/10/22 12:25:41;;;;;;;0.10;0.10;;;;;;;;;;4980932;28;20516;-94
2021/10/22 12:28:18;;;;;;;0.10;0.10;;;;;;;;;;4965562;28;20042;-92
2021/10/22 12:30:44;;;;;;;0.10;0.10;;;;;;;;;;4965686;28;20046;-93
2021/10/22 12:33:11;;;;;;;0.10;0.10;;;;;;;;;;4981080;28;20064;-93
2021/10/22 12:35:55;;;;;;;1.00;1.00;;;;;;;;;;4968983;28;20119;-95
2021/10/22 12:38:28;;;;;;;0.10;0.10;;;;;;;;;;4968104;28;20037;-92
2021/10/22 12:40:55;;;;;;;0.10;0.10;;;;;;;;;;4981011;28;20049;-93
2021/10/22 12:43:22;;;;;;;0.10;0.10;;;;;;;;;;4997480;28;20201;-92
2021/10/22 12:45:49;;;;;;;0.10;0.10;;;;;;;;;;4996922;28;20394;-91
2021/10/22 12:48:15;;;;;;;0.10;0.10;;;;;;;;;;4996656;28;20042;-90
2021/10/22 12:50:41;;;;;;;0.10;0.10;;;;;;;;;;4979907;28;20120;-93
2021/10/22 12:53:13;;;;;;;0.10;0.10;;;;;;;;;;4980912;28;20088;-92
2021/10/22 12:55:40;;;;;;;0.10;0.10;;;;;;;;;;4964731;28;20096;-91
2021/10/22 12:58:16;;;;;;;0.10;0.10;;;;;;;;;;4980746;28;20041;-92
2021/10/22 13:00:43;;;;;;;0.10;0.10;;;;;;;;;;4968953;28;20057;-96
2021/10/22 13:03:11;;;;;;;0.10;0.10;;;;;;;;;;4984010;28;20374;-95
2021/10/22 13:05:39;;;;;;;0.10;0.10;;;;;;;;;;4997631;28;20133;-92
2021/10/22 13:08:33;;;;;;;0.50;0.50;;;;;;;;;;4981957;28;20367;-95
2021/10/22 13:11:31;;;;;;;0.10;0.10;;;;;;;;;;4968378;28;20056;-93
2021/10/22 13:14:27;;;;;;;0.10;0.10;;;;;;;;;;4967496;28;20078;-96
2021/10/22 13:22:23;;;;;;;0.10;0.10;;;;;;;;;;4999358;28;20060;-92
2021/10/22 13:24:53;;;;;;;0.25;0.10;;;;;;;;;;5003074;28;20097;-91
2021/10/22 13:27:20;;;;;;;0.10;0.10;;;;;;;;;;4988360;28;20073;-91
2021/10/22 13:29:49;;;;;;;0.10;0.10;;;;;;;;;;5004028;28;20489;-91
2021/10/22 13:32:15;;;;;;;0.10;0.10;;;;;;;;;;5019552;28;20040;-94
2021/10/22 13:34:41;;;;;;;0.17;0.17;;;;;;;;;;4999497;28;20038;-94
2021/10/22 13:37:07;;;;;;;0.10;0.10;;;;;;;;;;4997154;28;20116;-95
2021/10/22 13:39:33;;;;;;;0.20;0.20;;;;;;;;;;4996907;28;20050;-95
2021/10/22 13:41:59;;;;;;;0.10;0.10;;;;;;;;;;4981383;28;20316;-96
2021/10/22 13:44:25;;;;;;;0.38;0.38;;;;;;;;;;5000703;28;20060;-92
2021/10/22 13:46:51;;;;;;;0.10;0.10;;;;;;;;;;4994941;28;20148;-93
2021/10/22 13:49:17;;;;;;;0.10;0.10;;;;;;;;;;4964148;28;20033;-94
2021/10/22 13:51:43;;;;;;;0.10;0.10;;;;;;;;;;4964929;28;20069;-93
2021/10/22 13:54:10;;;;;;;0.10;0.10;;;;;;;;;;4963856;28;20069;-94
2021/10/22 13:56:36;;;;;;;0.10;0.10;;;;;;;;;;4963972;28;20038;-94
2021/10/22 13:59:02;;;;;;;0.13;0.13;;;;;;;;;;4963943;28;20077;-92
2021/10/22 14:01:28;;;;;;;0.10;0.10;;;;;;;;;;4963824;28;20124;-95
2021/10/22 14:03:54;;;;;;;0.10;0.10;;;;;;;;;;4964575;28;20084;-94
2021/10/22 14:06:20;;;;;;;0.10;0.10;;;;;;;;;;4979739;28;20140;-94
2021/10/22 14:08:46;;;;;;;0.10;0.10;;;;;;;;;;4980196;28;20088;-94
2021/10/22 14:11:15;;;;;;;0.10;0.10;;;;;;;;;;4963753;28;20477;-93
2021/10/22 14:14:00;;;;;;;0.10;0.10;;;;;;;;;;4964604;28;20038;-92
2021/10/22 14:16:56;;;;;;;0.10;0.10;;;;;;;;;;4966382;28;20037;-95
2021/10/22 14:29:56;;;;;;;0.10;0.10;;;;;;;;;;4982001;28;20042;-95
2021/10/22 14:32:22;;;;;;;0.10;0.10;;;;;;;;;;4980335;28;20132;-92
2021/10/22 14:34:50;;;;;;;0.10;0.10;;;;;;;;;;4970507;28;20237;-93
2021/10/22 14:37:16;;;;;;;0.10;0.10;;;;;;;;;;4964456;28;20048;-92
2021/10/22 14:39:42;;;;;;;0.13;0.13;;;;;;;;;;4963720;28;20049;-93
2021/10/22 14:42:08;;;;;;;0.10;0.10;;;;;;;;;;4980029;28;20045;-89
2021/10/22 14:44:40;;;;;;;0.20;0.20;;;;;;;;;;4979497;28;20042;-91
2021/10/22 14:49:43;;;;;;;0.25;0.25;;;;;;;;;;4980271;28;20057;-91
2021/10/22 14:52:18;;;;;;;0.10;0.10;;;;;;;;;;4980020;28;20052;-93
2021/10/22 14:54:55;;;;;;;0.10;0.10;;;;;;;;;;4980643;28;20045;-93
2021/10/22 14:57:21;;;;;;;0.10;0.10;;;;;;;;;;4980709;28;20233;-92
2021/10/22 14:59:47;;;;;;;0.10;0.10;;;;;;;;;;4963887;28;20077;-94
2021/10/22 15:02:15;;;;;;;0.10;0.10;;;;;;;;;;4979744;28;20050;-91
2021/10/22 15:04:42;;;;;;;0.10;0.10;;;;;;;;;;4962702;28;20088;-88
2021/10/22 15:07:10;;;;;;;1.13;0.20;;;;;;;;;;4978233;28;20042;-88
2021/10/22 15:09:35;;;;;;;0.10;0.10;;;;;;;;;;4962915;28;20043;-90
2021/10/22 15:12:02;;;;;;;1.25;0.32;;;;;;;;;;4978935;28;20057;-92
2021/10/22 15:14:28;;;;;;;1.00;0.70;;;;;;;;;;4982780;28;20038;-91
2021/10/22 15:16:54;;;;;;;0.10;0.10;;;;;;;;;;4982753;28;20045;-91
2021/10/22 15:19:20;;;;;;;0.10;0.10;;;;;;;;;;4983250;28;20519;-92
2021/10/22 15:21:46;;;;;;;0.10;0.10;;;;;;;;;;4983189;28;20111;-93